sensor_id;sensor_type;location;lat;lon;timestamp;pressure;altitude;pressure_sealevel;temperature;humidity
59272;BME280;45043;51.068;7.026;2023-07-13T00:01:54;100361.66;;;16.77;39.76
59272;BME280;45043;51.068;7.026;2023-07-13T00:04:55;100363.94;;;16.85;39.46
59272;BME280;45043;51.068;7.026;2023-07-13T00:07:55;100374.75;;;16.90;39.71
59272;BME280;45043;51.068;7.026;2023-07-13T00:10:56;100371.59;;;16.93;39.62
59272;BME280;45043;51.068;7.026;2023-07-13T00:13:56;100367.63;;;16.96;39.75
59272;BME280;45043;51.068;7.026;2023-07-13T00:16:57;100376.09;;;17.05;39.05
59272;BME280;45043;51.068;7.026;2023-07-13T00:20:00;100368.03;;;17.05;38.80
59272;BME280;45043;51.068;7.026;2023-07-13T00:23:01;100370.25;;;17.08;39.35
59272;BME280;45043;51.068;7.026;2023-07-13T00:26:03;100378.38;;;17.13;39.27
59272;BME280;45043;51.068;7.026;2023-07-13T00:29:04;100375.84;;;17.18;38.60
59272;BME280;45043;51.068;7.026;2023-07-13T00:32:07;100365.09;;;17.18;38.80
59272;BME280;45043;51.068;7.026;2023-07-13T00:35:12;100374.78;;;17.19;39.23
59272;BME280;45043;51.068;7.026;2023-07-13T00:38:13;100373.63;;;17.15;38.95
59272;BME280;45043;51.068;7.026;2023-07-13T00:41:14;100364.63;;;17.09;38.81
59272;BME280;45043;51.068;7.026;2023-07-13T00:44:16;100364.06;;;17.07;38.93
59272;BME280;45043;51.068;7.026;2023-07-13T00:47:16;100369.91;;;17.04;38.83
59272;BME280;45043;51.068;7.026;2023-07-13T00:50:18;100364.22;;;17.01;38.88
59272;BME280;45043;51.068;7.026;2023-07-13T00:53:20;100366.50;;;16.92;38.87
59272;BME280;45043;51.068;7.026;2023-07-13T00:56:21;100366.63;;;16.85;39.19
59272;BME280;45043;51.068;7.026;2023-07-13T00:59:22;100366.63;;;16.85;39.39
59272;BME280;45043;51.068;7.026;2023-07-13T01:02:23;100365.50;;;16.81;38.93
59272;BME280;45043;51.068;7.026;2023-07-13T01:05:25;100363.28;;;16.78;39.18
59272;BME280;45043;51.068;7.026;2023-07-13T01:08:25;100361.75;;;16.82;39.56
59272;BME280;45043;51.068;7.026;2023-07-13T01:11:26;100357.53;;;16.86;39.32
59272;BME280;45043;51.068;7.026;2023-07-13T01:14:26;100363.69;;;16.87;38.65
59272;BME280;45043;51.068;7.026;2023-07-13T01:17:28;100361.75;;;16.82;39.45
59272;BME280;45043;51.068;7.026;2023-07-13T01:20:29;100357.84;;;16.73;39.34
59272;BME280;45043;51.068;7.026;2023-07-13T01:23:31;100366.56;;;16.68;39.35
59272;BME280;45043;51.068;7.026;2023-07-13T01:26:32;100377.94;;;16.59;39.48
59272;BME280;45043;51.068;7.026;2023-07-13T01:29:34;100366.63;;;16.57;39.47
59272;BME280;45043;51.068;7.026;2023-07-13T01:32:34;100372.47;;;16.54;39.87
59272;BME280;45043;51.068;7.026;2023-07-13T01:35:37;100371.91;;;16.52;40.16
59272;BME280;45043;51.068;7.026;2023-07-13T01:38:38;100367.56;;;16.50;39.63
59272;BME280;45043;51.068;7.026;2023-07-13T01:41:38;100365.72;;;16.51;40.15
59272;BME280;45043;51.068;7.026;2023-07-13T01:44:39;100370.25;;;16.50;40.32
59272;BME280;45043;51.068;7.026;2023-07-13T01:47:39;100362.47;;;16.49;39.97
59272;BME280;45043;51.068;7.026;2023-07-13T01:50:40;100364.34;;;16.48;40.20
59272;BME280;45043;51.068;7.026;2023-07-13T01:53:41;100372.03;;;16.45;40.39
59272;BME280;45043;51.068;7.026;2023-07-13T01:56:42;100370.41;;;16.44;40.27
59272;BME280;45043;51.068;7.026;2023-07-13T01:59:42;100367.63;;;16.39;40.11
59272;BME280;45043;51.068;7.026;2023-07-13T02:02:43;100364.38;;;16.37;40.66
59272;BME280;45043;51.068;7.026;2023-07-13T02:05:44;100363.78;;;16.35;40.47
59272;BME280;45043;51.068;7.026;2023-07-13T02:08:45;100373.69;;;16.34;40.65
59272;BME280;45043;51.068;7.026;2023-07-13T02:11:45;100381.16;;;16.32;40.75
59272;BME280;45043;51.068;7.026;2023-07-13T02:14:46;100379.41;;;16.26;40.74
59272;BME280;45043;51.068;7.026;2023-07-13T02:17:47;100380.13;;;16.21;40.66
59272;BME280;45043;51.068;7.026;2023-07-13T02:20:47;100380.34;;;16.20;40.93
59272;BME280;45043;51.068;7.026;2023-07-13T02:23:48;100371.25;;;16.21;40.77
59272;BME280;45043;51.068;7.026;2023-07-13T02:26:50;100378.47;;;16.20;41.42
59272;BME280;45043;51.068;7.026;2023-07-13T02:29:50;100386.75;;;16.19;41.03
59272;BME280;45043;51.068;7.026;2023-07-13T02:32:56;100379.28;;;16.21;41.38
59272;BME280;45043;51.068;7.026;2023-07-13T02:35:57;100372.41;;;16.25;41.09
59272;BME280;45043;51.068;7.026;2023-07-13T02:39:03;100376.25;;;16.29;41.21
59272;BME280;45043;51.068;7.026;2023-07-13T02:42:05;100384.28;;;16.29;41.07
59272;BME280;45043;51.068;7.026;2023-07-13T02:45:06;100381.84;;;16.27;40.96
59272;BME280;45043;51.068;7.026;2023-07-13T02:48:07;100378.94;;;16.29;41.70
59272;BME280;45043;51.068;7.026;2023-07-13T02:51:08;100378.69;;;16.31;41.18
59272;BME280;45043;51.068;7.026;2023-07-13T02:54:10;100379.75;;;16.30;41.12
59272;BME280;45043;51.068;7.026;2023-07-13T02:57:12;100376.00;;;16.31;41.16
59272;BME280;45043;51.068;7.026;2023-07-13T03:00:12;100381.50;;;16.24;41.15
59272;BME280;45043;51.068;7.026;2023-07-13T03:03:14;100379.66;;;16.13;41.65
59272;BME280;45043;51.068;7.026;2023-07-13T03:06:16;100380.94;;;16.10;41.54
59272;BME280;45043;51.068;7.026;2023-07-13T03:09:25;100386.44;;;16.03;41.37
59272;BME280;45043;51.068;7.026;2023-07-13T03:12:27;100388.31;;;15.91;41.66
59272;BME280;45043;51.068;7.026;2023-07-13T03:15:29;100395.88;;;15.83;42.01
59272;BME280;45043;51.068;7.026;2023-07-13T03:18:32;100397.63;;;15.77;41.71
59272;BME280;45043;51.068;7.026;2023-07-13T03:21:36;100393.09;;;15.77;41.87
59272;BME280;45043;51.068;7.026;2023-07-13T03:24:37;100387.47;;;15.79;42.07
59272;BME280;45043;51.068;7.026;2023-07-13T03:27:39;100394.25;;;15.82;41.75
59272;BME280;45043;51.068;7.026;2023-07-13T03:30:41;100397.50;;;15.84;41.92
59272;BME280;45043;51.068;7.026;2023-07-13T03:33:43;100398.34;;;15.84;41.70
59272;BME280;45043;51.068;7.026;2023-07-13T03:36:44;100400.41;;;15.82;41.91
59272;BME280;45043;51.068;7.026;2023-07-13T03:39:47;100408.44;;;15.82;41.76
59272;BME280;45043;51.068;7.026;2023-07-13T03:42:48;100413.56;;;15.84;41.76
59272;BME280;45043;51.068;7.026;2023-07-13T03:45:51;100417.19;;;15.77;41.86
59272;BME280;45043;51.068;7.026;2023-07-13T03:48:51;100405.19;;;15.68;41.90
59272;BME280;45043;51.068;7.026;2023-07-13T03:51:52;100418.47;;;15.63;41.77
59272;BME280;45043;51.068;7.026;2023-07-13T03:54:53;100422.66;;;15.59;41.91
59272;BME280;45043;51.068;7.026;2023-07-13T03:58:34;100420.31;;;15.63;42.14
59272;BME280;45043;51.068;7.026;2023-07-13T04:01:43;100429.97;;;15.64;42.13
59272;BME280;45043;51.068;7.026;2023-07-13T04:04:46;100419.72;;;15.61;42.30
59272;BME280;45043;51.068;7.026;2023-07-13T04:07:47;100431.25;;;15.61;42.56
59272;BME280;45043;51.068;7.026;2023-07-13T04:10:47;100434.88;;;15.67;42.26
59272;BME280;45043;51.068;7.026;2023-07-13T04:13:48;100435.78;;;15.72;41.94
59272;BME280;45043;51.068;7.026;2023-07-13T04:16:49;100431.84;;;15.75;41.83
59272;BME280;45043;51.068;7.026;2023-07-13T04:19:49;100443.28;;;15.82;41.89
59272;BME280;45043;51.068;7.026;2023-07-13T04:22:50;100439.31;;;15.96;41.82
59272;BME280;45043;51.068;7.026;2023-07-13T04:25:52;100439.56;;;16.07;41.84
59272;BME280;45043;51.068;7.026;2023-07-13T04:28:53;100450.63;;;16.10;41.70
59272;BME280;45043;51.068;7.026;2023-07-13T04:31:53;100447.69;;;16.12;41.89
59272;BME280;45043;51.068;7.026;2023-07-13T04:34:54;100449.22;;;16.08;41.64
59272;BME280;45043;51.068;7.026;2023-07-13T04:37:56;100441.28;;;16.13;41.80
59272;BME280;45043;51.068;7.026;2023-07-13T04:40:58;100436.16;;;16.11;41.96
59272;BME280;45043;51.068;7.026;2023-07-13T04:43:59;100441.28;;;16.13;41.97
59272;BME280;45043;51.068;7.026;2023-07-13T04:47:00;100447.69;;;16.12;42.00
59272;BME280;45043;51.068;7.026;2023-07-13T04:50:00;100449.78;;;16.10;42.17
59272;BME280;45043;51.068;7.026;2023-07-13T04:53:01;100452.34;;;16.16;42.11
59272;BME280;45043;51.068;7.026;2023-07-13T04:56:02;100451.78;;;16.26;41.86
59272;BME280;45043;51.068;7.026;2023-07-13T04:59:03;100446.16;;;16.27;42.28
59272;BME280;45043;51.068;7.026;2023-07-13T05:02:03;100451.44;;;16.34;41.48
59272;BME280;45043;51.068;7.026;2023-07-13T05:05:05;100450.16;;;16.25;41.97
59272;BME280;45043;51.068;7.026;2023-07-13T05:08:06;100464.13;;;16.03;42.46
59272;BME280;45043;51.068;7.026;2023-07-13T05:11:07;100461.91;;;16.00;42.73
59272;BME280;45043;51.068;7.026;2023-07-13T05:14:08;100467.28;;;16.00;43.05
59272;BME280;45043;51.068;7.026;2023-07-13T05:17:10;100471.00;;;15.99;43.11
59272;BME280;45043;51.068;7.026;2023-07-13T05:20:10;100469.34;;;15.98;42.90
59272;BME280;45043;51.068;7.026;2023-07-13T05:23:11;100464.59;;;16.00;43.31
59272;BME280;45043;51.068;7.026;2023-07-13T05:26:11;100475.41;;;16.06;43.18
59272;BME280;45043;51.068;7.026;2023-07-13T05:29:12;100478.47;;;16.09;42.96
59272;BME280;45043;51.068;7.026;2023-07-13T05:32:12;100475.66;;;16.16;42.97
59272;BME280;45043;51.068;7.026;2023-07-13T05:35:12;100482.41;;;16.30;42.92
59272;BME280;45043;51.068;7.026;2023-07-13T05:38:13;100481.03;;;16.39;42.55
59272;BME280;45043;51.068;7.026;2023-07-13T05:41:13;100482.88;;;16.50;42.57
59272;BME280;45043;51.068;7.026;2023-07-13T05:44:14;100481.13;;;16.56;42.48
59272;BME280;45043;51.068;7.026;2023-07-13T05:47:14;100485.00;;;16.48;42.56
59272;BME280;45043;51.068;7.026;2023-07-13T05:50:15;100502.25;;;16.53;42.49
59272;BME280;45043;51.068;7.026;2023-07-13T05:53:16;100507.16;;;16.56;42.79
59272;BME280;45043;51.068;7.026;2023-07-13T05:56:16;100505.53;;;16.55;42.61
59272;BME280;45043;51.068;7.026;2023-07-13T05:59:17;100501.00;;;16.43;43.09
59272;BME280;45043;51.068;7.026;2023-07-13T06:02:18;100505.84;;;16.46;43.18
59272;BME280;45043;51.068;7.026;2023-07-13T06:05:19;100506.69;;;16.35;43.63
59272;BME280;45043;51.068;7.026;2023-07-13T06:08:20;100501.66;;;16.27;44.07
59272;BME280;45043;51.068;7.026;2023-07-13T06:11:22;100513.44;;;16.26;43.95
59272;BME280;45043;51.068;7.026;2023-07-13T06:14:23;100512.72;;;16.19;44.41
59272;BME280;45043;51.068;7.026;2023-07-13T06:17:24;100503.75;;;16.13;44.44
59272;BME280;45043;51.068;7.026;2023-07-13T06:20:24;100512.72;;;16.19;44.32
59272;BME280;45043;51.068;7.026;2023-07-13T06:23:25;100516.69;;;16.28;44.07
59272;BME280;45043;51.068;7.026;2023-07-13T06:26:25;100510.66;;;16.44;44.14
59272;BME280;45043;51.068;7.026;2023-07-13T06:29:26;100523.69;;;16.53;44.07
59272;BME280;45043;51.068;7.026;2023-07-13T06:32:27;100519.03;;;16.60;43.63
59272;BME280;45043;51.068;7.026;2023-07-13T06:35:27;100522.63;;;16.65;44.05
59272;BME280;45043;51.068;7.026;2023-07-13T06:38:28;100518.09;;;16.66;43.95
59272;BME280;45043;51.068;7.026;2023-07-13T06:41:28;100524.97;;;16.73;43.95
59272;BME280;45043;51.068;7.026;2023-07-13T06:44:32;100519.78;;;16.84;43.95
59272;BME280;45043;51.068;7.026;2023-07-13T06:47:32;100533.88;;;16.91;43.76
59272;BME280;45043;51.068;7.026;2023-07-13T06:50:33;100537.97;;;16.93;43.70
59272;BME280;45043;51.068;7.026;2023-07-13T06:53:35;100536.44;;;16.97;43.52
59272;BME280;45043;51.068;7.026;2023-07-13T06:56:36;100533.88;;;17.03;43.29
59272;BME280;45043;51.068;7.026;2023-07-13T06:59:36;100545.44;;;17.03;43.70
59272;BME280;45043;51.068;7.026;2023-07-13T07:02:37;100545.56;;;16.96;43.69
59272;BME280;45043;51.068;7.026;2023-07-13T07:05:37;100545.56;;;16.96;43.80
59272;BME280;45043;51.068;7.026;2023-07-13T07:08:38;100540.41;;;16.95;44.07
59272;BME280;45043;51.068;7.026;2023-07-13T07:11:38;100546.88;;;16.82;44.48
59272;BME280;45043;51.068;7.026;2023-07-13T07:14:38;100534.47;;;16.93;44.10
59272;BME280;45043;51.068;7.026;2023-07-13T07:17:39;100536.75;;;17.13;43.41
59272;BME280;45043;51.068;7.026;2023-07-13T07:20:39;100558.47;;;17.11;43.58
59272;BME280;45043;51.068;7.026;2023-07-13T07:23:41;100562.22;;;16.98;43.65
59272;BME280;45043;51.068;7.026;2023-07-13T07:26:42;100580.19;;;16.98;44.18
59272;BME280;45043;51.068;7.026;2023-07-13T07:29:43;100570.44;;;16.92;44.28
59272;BME280;45043;51.068;7.026;2023-07-13T07:32:43;100553.63;;;16.85;44.34
59272;BME280;45043;51.068;7.026;2023-07-13T07:35:44;100554.78;;;16.89;44.58
59272;BME280;45043;51.068;7.026;2023-07-13T07:38:45;100572.53;;;16.90;44.30
59272;BME280;45043;51.068;7.026;2023-07-13T07:41:45;100561.91;;;16.83;44.92
59272;BME280;45043;51.068;7.026;2023-07-13T07:44:45;100568.69;;;16.74;45.24
59272;BME280;45043;51.068;7.026;2023-07-13T07:47:46;100566.84;;;16.63;45.58
59272;BME280;45043;51.068;7.026;2023-07-13T07:50:47;100552.84;;;16.61;45.36
59272;BME280;45043;51.068;7.026;2023-07-13T07:53:48;100557.28;;;16.67;45.32
59272;BME280;45043;51.068;7.026;2023-07-13T07:56:48;100557.25;;;16.79;45.11
59272;BME280;45043;51.068;7.026;2023-07-13T07:59:49;100562.38;;;16.80;45.27
59272;BME280;45043;51.068;7.026;2023-07-13T08:02:49;100552.13;;;16.89;44.95
59272;BME280;45043;51.068;7.026;2023-07-13T08:05:53;100554.28;;;17.04;45.25
59272;BME280;45043;51.068;7.026;2023-07-13T08:08:54;100557.78;;;17.04;44.76
59272;BME280;45043;51.068;7.026;2023-07-13T08:11:55;100550.63;;;17.10;45.07
59272;BME280;45043;51.068;7.026;2023-07-13T08:14:55;100553.81;;;17.18;45.04
59272;BME280;45043;51.068;7.026;2023-07-13T08:18:00;100556.94;;;17.27;45.12
59272;BME280;45043;51.068;7.026;2023-07-13T08:21:05;100560.34;;;17.22;44.96
59272;BME280;45043;51.068;7.026;2023-07-13T08:24:06;100550.16;;;17.25;44.81
59272;BME280;45043;51.068;7.026;2023-07-13T08:27:06;100553.19;;;17.28;44.46
59272;BME280;45043;51.068;7.026;2023-07-13T08:30:07;100557.00;;;17.44;44.35
59272;BME280;45043;51.068;7.026;2023-07-13T08:33:08;100570.94;;;17.58;44.24
59272;BME280;45043;51.068;7.026;2023-07-13T08:36:09;100554.78;;;17.69;44.25
59272;BME280;45043;51.068;7.026;2023-07-13T08:39:09;100554.03;;;17.74;43.91
59272;BME280;45043;51.068;7.026;2023-07-13T08:42:12;100553.38;;;17.67;44.14
59272;BME280;45043;51.068;7.026;2023-07-13T08:48:50;100549.06;;;17.66;44.34
59272;BME280;45043;51.068;7.026;2023-07-13T08:51:59;100546.88;;;17.80;44.04
59272;BME280;45043;51.068;7.026;2023-07-13T08:55:12;100542.28;;;18.09;44.11
59272;BME280;45043;51.068;7.026;2023-07-13T08:58:15;100548.94;;;18.23;43.32
59272;BME280;45043;51.068;7.026;2023-07-13T09:01:45;100554.31;;;18.23;43.18
59272;BME280;45043;51.068;7.026;2023-07-13T09:05:03;100572.09;;;18.24;42.80
59272;BME280;45043;51.068;7.026;2023-07-13T09:17:46;100564.50;;;18.55;42.04
59272;BME280;45043;51.068;7.026;2023-07-13T09:20:51;100556.16;;;18.56;41.65
59272;BME280;45043;51.068;7.026;2023-07-13T09:23:57;100554.94;;;18.47;42.04
59272;BME280;45043;51.068;7.026;2023-07-13T09:26:59;100543.09;;;18.65;41.99
59272;BME280;45043;51.068;7.026;2023-07-13T09:33:15;100551.16;;;19.04;41.30
59272;BME280;45043;51.068;7.026;2023-07-13T09:36:28;100543.38;;;19.29;40.63
59272;BME280;45043;51.068;7.026;2023-07-13T09:39:33;100542.91;;;19.37;40.72
59272;BME280;45043;51.068;7.026;2023-07-13T09:42:33;100554.16;;;19.29;40.50
59272;BME280;45043;51.068;7.026;2023-07-13T09:45:34;100545.97;;;19.19;40.82
59272;BME280;45043;51.068;7.026;2023-07-13T09:48:35;100555.66;;;19.20;40.41
59272;BME280;45043;51.068;7.026;2023-07-13T09:51:43;100551.34;;;19.19;40.28
59272;BME280;45043;51.068;7.026;2023-07-13T09:54:48;100566.19;;;19.00;40.30
59272;BME280;45043;51.068;7.026;2023-07-13T09:57:49;100571.88;;;18.81;40.62
59272;BME280;45043;51.068;7.026;2023-07-13T10:00:56;100586.88;;;18.60;41.13
59272;BME280;45043;51.068;7.026;2023-07-13T10:03:57;100580.06;;;18.53;40.50
59272;BME280;45043;51.068;7.026;2023-07-13T10:07:11;100564.00;;;18.41;40.92
59272;BME280;45043;51.068;7.026;2023-07-13T10:10:17;100577.84;;;18.50;41.24
59272;BME280;45043;51.068;7.026;2023-07-13T10:13:34;100583.31;;;18.55;40.85
59272;BME280;45043;51.068;7.026;2023-07-13T10:16:37;100567.78;;;18.62;40.65
59272;BME280;45043;51.068;7.026;2023-07-13T10:19:38;100571.16;;;18.69;40.29
59272;BME280;45043;51.068;7.026;2023-07-13T10:23:02;100568.56;;;18.74;40.45
59272;BME280;45043;51.068;7.026;2023-07-13T10:26:03;100621.63;;;18.79;40.50
59272;BME280;45043;51.068;7.026;2023-07-13T10:29:09;100578.75;;;18.72;40.72
59272;BME280;45043;51.068;7.026;2023-07-13T10:32:13;100587.38;;;18.74;40.68
59272;BME280;45043;51.068;7.026;2023-07-13T10:35:15;100583.63;;;18.75;40.33
59272;BME280;45043;51.068;7.026;2023-07-13T10:38:21;100592.91;;;18.84;39.63
59272;BME280;45043;51.068;7.026;2023-07-13T10:41:24;100598.78;;;18.81;39.70
59272;BME280;45043;51.068;7.026;2023-07-13T10:44:31;100590.63;;;18.76;39.70
59272;BME280;45043;51.068;7.026;2023-07-13T10:47:33;100598.41;;;18.95;39.54
59272;BME280;45043;51.068;7.026;2023-07-13T10:50:34;100576.38;;;18.98;39.50
59272;BME280;45043;51.068;7.026;2023-07-13T10:53:38;100623.72;;;18.94;39.75
59272;BME280;45043;51.068;7.026;2023-07-13T10:56:43;100587.34;;;18.91;40.00
59272;BME280;45043;51.068;7.026;2023-07-13T10:59:49;100593.03;;;18.95;39.76
59272;BME280;45043;51.068;7.026;2023-07-13T11:03:15;100581.59;;;19.04;39.55
59272;BME280;45043;51.068;7.026;2023-07-13T11:06:39;100575.00;;;19.17;39.11
59272;BME280;45043;51.068;7.026;2023-07-13T11:09:51;100578.44;;;19.12;39.44
59272;BME280;45043;51.068;7.026;2023-07-13T11:12:53;100587.09;;;19.14;39.37
59272;BME280;45043;51.068;7.026;2023-07-13T11:15:54;100589.50;;;19.11;38.88
59272;BME280;45043;51.068;7.026;2023-07-13T11:28:23;100591.69;;;18.92;38.69
59272;BME280;45043;51.068;7.026;2023-07-13T11:31:24;100582.25;;;18.95;38.60
59272;BME280;45043;51.068;7.026;2023-07-13T11:34:33;100578.00;;;18.99;38.92
59272;BME280;45043;51.068;7.026;2023-07-13T11:37:35;100591.34;;;18.88;38.93
59272;BME280;45043;51.068;7.026;2023-07-13T11:40:35;100581.94;;;18.91;39.36
59272;BME280;45043;51.068;7.026;2023-07-13T11:43:36;100598.91;;;18.91;38.45
59272;BME280;45043;51.068;7.026;2023-07-13T11:46:37;100583.47;;;18.82;39.47
59272;BME280;45043;51.068;7.026;2023-07-13T11:49:45;100578.69;;;18.67;39.76
59272;BME280;45043;51.068;7.026;2023-07-13T11:52:48;100582.19;;;18.67;39.20
59272;BME280;45043;51.068;7.026;2023-07-13T11:55:50;100605.91;;;18.71;39.35
59272;BME280;45043;51.068;7.026;2023-07-13T11:58:54;100594.69;;;18.62;39.38
59272;BME280;45043;51.068;7.026;2023-07-13T12:01:55;100593.16;;;18.66;39.47
59272;BME280;45043;51.068;7.026;2023-07-13T12:04:57;100574.44;;;18.93;39.35
59272;BME280;45043;51.068;7.026;2023-07-13T12:07:59;100574.50;;;19.20;38.49
59272;BME280;45043;51.068;7.026;2023-07-13T12:11:15;100567.19;;;19.15;39.12
59272;BME280;45043;51.068;7.026;2023-07-13T12:14:18;100563.81;;;19.25;38.80
59272;BME280;45043;51.068;7.026;2023-07-13T12:17:21;100576.19;;;19.26;38.29
59272;BME280;45043;51.068;7.026;2023-07-13T12:20:27;100551.88;;;19.21;38.21
59272;BME280;45043;51.068;7.026;2023-07-13T12:23:34;100560.28;;;19.25;37.22
59272;BME280;45043;51.068;7.026;2023-07-13T12:26:36;100577.47;;;19.41;37.11
59272;BME280;45043;51.068;7.026;2023-07-13T12:29:37;100574.81;;;19.46;36.11
59272;BME280;45043;51.068;7.026;2023-07-13T12:32:37;100579.13;;;19.47;35.59
59272;BME280;45043;51.068;7.026;2023-07-13T12:35:44;100570.66;;;19.60;36.17
59272;BME280;45043;51.068;7.026;2023-07-13T12:38:46;100573.41;;;19.65;35.33
59272;BME280;45043;51.068;7.026;2023-07-13T12:41:48;100555.13;;;19.72;36.35
59272;BME280;45043;51.068;7.026;2023-07-13T12:44:51;100582.69;;;19.79;35.36
59272;BME280;45043;51.068;7.026;2023-07-13T12:47:55;100561.25;;;19.95;35.58
59272;BME280;45043;51.068;7.026;2023-07-13T12:51:00;100550.63;;;20.10;35.45
59272;BME280;45043;51.068;7.026;2023-07-13T12:54:16;100573.63;;;19.91;35.62
59272;BME280;45043;51.068;7.026;2023-07-13T12:57:17;100573.41;;;19.65;35.75
59272;BME280;45043;51.068;7.026;2023-07-13T13:04:12;100563.41;;;19.38;36.31
59272;BME280;45043;51.068;7.026;2023-07-13T13:07:05;100580.72;;;19.43;36.10
59272;BME280;45043;51.068;7.026;2023-07-13T13:10:13;100572.34;;;19.66;35.40
59272;BME280;45043;51.068;7.026;2023-07-13T13:13:14;100572.53;;;19.86;35.34
59272;BME280;45043;51.068;7.026;2023-07-13T13:19:27;100560.44;;;19.89;34.86
59272;BME280;45043;51.068;7.026;2023-07-13T13:22:28;100566.66;;;20.22;34.21
59272;BME280;45043;51.068;7.026;2023-07-13T13:25:29;100586.56;;;20.58;33.77
59272;BME280;45043;51.068;7.026;2023-07-13T13:28:31;100569.94;;;20.76;32.49
59272;BME280;45043;51.068;7.026;2023-07-13T13:31:32;100577.75;;;20.73;32.74
59272;BME280;45043;51.068;7.026;2023-07-13T13:34:33;100579.63;;;20.72;32.13
59272;BME280;45043;51.068;7.026;2023-07-13T13:37:34;100558.75;;;21.00;31.32
59272;BME280;45043;51.068;7.026;2023-07-13T13:40:35;100545.88;;;21.27;31.35
59272;BME280;45043;51.068;7.026;2023-07-13T13:43:35;100560.47;;;21.31;31.32
59272;BME280;45043;51.068;7.026;2023-07-13T13:46:36;100549.13;;;21.40;31.54
59272;BME280;45043;51.068;7.026;2023-07-13T13:49:36;100548.91;;;21.46;31.90
59272;BME280;45043;51.068;7.026;2023-07-13T13:52:37;100559.72;;;21.46;31.12
59272;BME280;45043;51.068;7.026;2023-07-13T13:55:37;100569.25;;;21.74;30.33
59272;BME280;45043;51.068;7.026;2023-07-13T13:58:39;100555.19;;;21.83;30.75
59272;BME280;45043;51.068;7.026;2023-07-13T14:01:41;100566.78;;;21.63;30.52
59272;BME280;45043;51.068;7.026;2023-07-13T14:04:42;100549.94;;;21.35;31.06
59272;BME280;45043;51.068;7.026;2023-07-13T14:07:43;100547.00;;;21.37;31.42
59272;BME280;45043;51.068;7.026;2023-07-13T14:10:45;100537.84;;;21.68;31.15
59272;BME280;45043;51.068;7.026;2023-07-13T14:13:54;100544.34;;;21.98;30.88
59272;BME280;45043;51.068;7.026;2023-07-13T14:16:55;100539.50;;;22.20;30.40
59272;BME280;45043;51.068;7.026;2023-07-13T14:19:57;100557.59;;;22.35;30.42
59272;BME280;45043;51.068;7.026;2023-07-13T14:22:58;100552.22;;;22.15;29.94
59272;BME280;45043;51.068;7.026;2023-07-13T14:25:59;100554.09;;;21.99;30.39
59272;BME280;45043;51.068;7.026;2023-07-13T14:29:00;100557.06;;;21.87;30.46
59272;BME280;45043;51.068;7.026;2023-07-13T14:32:00;100547.06;;;21.72;30.87
59272;BME280;45043;51.068;7.026;2023-07-13T14:35:01;100586.50;;;21.48;30.64
59272;BME280;45043;51.068;7.026;2023-07-13T14:38:02;100544.81;;;21.34;30.52
59272;BME280;45043;51.068;7.026;2023-07-13T14:41:02;100537.22;;;21.30;30.57
59272;BME280;45043;51.068;7.026;2023-07-13T14:44:14;100595.06;;;21.35;30.38
59272;BME280;45043;51.068;7.026;2023-07-13T14:47:15;100551.84;;;21.29;30.39
59272;BME280;45043;51.068;7.026;2023-07-13T14:50:26;100583.16;;;21.25;30.55
59272;BME280;45043;51.068;7.026;2023-07-13T14:53:28;100546.44;;;21.29;30.43
59272;BME280;45043;51.068;7.026;2023-07-13T14:56:29;100564.28;;;21.41;30.56
59272;BME280;45043;51.068;7.026;2023-07-13T14:59:29;100554.06;;;21.58;30.67
59272;BME280;45043;51.068;7.026;2023-07-13T15:02:35;100569.22;;;21.64;30.90
59272;BME280;45043;51.068;7.026;2023-07-13T15:05:37;100551.38;;;21.84;30.76
59272;BME280;45043;51.068;7.026;2023-07-13T15:08:40;100571.91;;;21.64;30.60
59272;BME280;45043;51.068;7.026;2023-07-13T15:11:41;100593.75;;;21.42;31.16
59272;BME280;45043;51.068;7.026;2023-07-13T15:14:41;100564.63;;;21.75;30.51
59272;BME280;45043;51.068;7.026;2023-07-13T15:17:44;100542.19;;;21.74;30.29
59272;BME280;45043;51.068;7.026;2023-07-13T15:20:48;100556.78;;;21.63;30.62
59272;BME280;45043;51.068;7.026;2023-07-13T15:23:49;100544.81;;;21.44;31.09
59272;BME280;45043;51.068;7.026;2023-07-13T15:26:50;100547.19;;;21.20;31.63
59272;BME280;45043;51.068;7.026;2023-07-13T15:29:50;100568.13;;;20.82;31.87
59272;BME280;45043;51.068;7.026;2023-07-13T15:32:51;100573.03;;;20.48;31.99
59272;BME280;45043;51.068;7.026;2023-07-13T15:35:52;100575.78;;;20.16;32.96
59272;BME280;45043;51.068;7.026;2023-07-13T15:38:55;100569.91;;;19.65;36.41
59272;BME280;45043;51.068;7.026;2023-07-13T15:41:55;100603.69;;;18.84;38.61
59272;BME280;45043;51.068;7.026;2023-07-13T15:44:56;100603.88;;;18.27;40.69
59272;BME280;45043;51.068;7.026;2023-07-13T15:47:56;100602.22;;;17.92;41.72
59272;BME280;45043;51.068;7.026;2023-07-13T15:51:02;100593.88;;;17.77;42.19
59272;BME280;45043;51.068;7.026;2023-07-13T15:54:03;100598.84;;;17.57;43.74
59272;BME280;45043;51.068;7.026;2023-07-13T15:57:09;100584.72;;;17.33;44.30
59272;BME280;45043;51.068;7.026;2023-07-13T16:00:23;100579.84;;;17.18;45.33
59272;BME280;45043;51.068;7.026;2023-07-13T16:03:24;100597.94;;;17.11;45.51
59272;BME280;45043;51.068;7.026;2023-07-13T16:06:31;100600.59;;;17.11;45.87
59272;BME280;45043;51.068;7.026;2023-07-13T16:09:33;100611.25;;;17.17;45.44
59272;BME280;45043;51.068;7.026;2023-07-13T16:12:34;100610.97;;;17.31;44.83
59272;BME280;45043;51.068;7.026;2023-07-13T16:15:34;100607.44;;;17.42;44.25
59272;BME280;45043;51.068;7.026;2023-07-13T16:18:37;100596.06;;;17.52;43.94
59272;BME280;45043;51.068;7.026;2023-07-13T16:21:49;100606.22;;;17.50;44.20
59272;BME280;45043;51.068;7.026;2023-07-13T16:24:51;100602.00;;;17.54;44.51
59272;BME280;45043;51.068;7.026;2023-07-13T16:27:56;100597.13;;;17.51;44.73